Time,TemperatureF,DewpointF,PressureIn,WindDirection,WindDirectionDegrees,WindSpeedMPH,WindSpeedGustMPH,Humidity,HourlyPrecipIn,Conditions,Clouds,dailyrainin,SoftwareType,DateUTC
2019-03-22 00:04:45,61.2,49.8,30.03,West,277,0.0,0.0,66,0.00,,CLR,0.00,VWS V15.00,2019-03-22 04:04:45,
2019-03-22 00:09:45,61.0,49.6,30.03,West,277,0.0,0.0,66,0.00,,CLR,0.00,VWS V15.00,2019-03-22 04:09:45,
2019-03-22 00:14:45,60.9,49.5,30.02,West,277,0.0,0.0,66,0.00,,CLR,0.00,VWS V15.00,2019-03-22 04:14:45,
2019-03-22 00:19:50,60.7,49.7,30.03,West,277,0.0,0.0,67,0.00,,CLR,0.00,VWS V15.00,2019-03-22 04:19:50,
2019-03-22 00:24:50,60.5,49.5,30.03,West,261,0.0,0.0,67,0.00,,CLR,0.00,VWS V15.00,2019-03-22 04:24:50,
2019-03-22 00:29:50,60.3,50.1,30.04,West,260,0.0,0.0,69,0.00,,CLR,0.00,VWS V15.00,2019-03-22 04:29:50,
2019-03-22 00:34:55,60.1,50.3,30.03,West,266,0.0,0.0,70,0.00,,CLR,0.00,VWS V15.00,2019-03-22 04:34:55,
2019-03-22 00:39:54,60.0,50.2,30.03,West,267,0.0,0.0,70,0.00,,CLR,0.00,VWS V15.00,2019-03-22 04:39:54,
2019-03-22 00:44:55,59.9,50.5,30.03,NW,308,0.0,0.0,71,0.00,,CLR,0.00,VWS V15.00,2019-03-22 04:44:55,
2019-03-22 00:49:55,59.8,50.4,30.03,WNW,301,0.0,0.0,71,0.00,,CLR,0.00,VWS V15.00,2019-03-22 04:49:55,
2019-03-22 00:54:00,59.7,50.7,30.03,West,281,0.0,0.0,72,0.00,,CLR,0.00,VWS V15.00,2019-03-22 04:54:00,
2019-03-22 00:59:00,59.5,50.5,30.03,NW,316,0.0,5.0,72,0.00,,CLR,0.00,VWS V15.00,2019-03-22 04:59:00,
2019-03-22 01:04:00,59.4,50.4,30.04,NW,307,0.0,0.0,72,0.00,,CLR,0.00,VWS V15.00,2019-03-22 05:04:00,
2019-03-22 01:09:00,59.3,50.7,30.03,NW,317,0.0,4.0,73,0.00,,CLR,0.00,VWS V15.00,2019-03-22 05:09:00,
2019-03-22 01:14:00,59.1,50.8,30.03,NW,310,0.0,7.0,74,0.00,,CLR,0.00,VWS V15.00,2019-03-22 05:14:00,
2019-03-22 01:19:09,58.9,51.0,30.05,WNW,298,4.0,7.0,75,0.00,,CLR,0.00,VWS V15.00,2019-03-22 05:19:09,
2019-03-22 01:24:05,58.8,50.9,30.04,NW,304,0.0,7.0,75,0.00,,CLR,0.00,VWS V15.00,2019-03-22 05:24:05,
2019-03-22 01:29:10,58.8,51.3,30.04,West,279,0.0,12.0,76,0.00,,CLR,0.00,VWS V15.00,2019-03-22 05:29:10,
2019-03-22 01:34:10,58.8,51.3,30.04,WNW,298,0.0,12.0,76,0.00,,CLR,0.00,VWS V15.00,2019-03-22 05:34:10,
2019-03-22 01:39:15,58.8,51.3,30.04,NW,317,0.0,12.0,76,0.00,,CLR,0.00,VWS V15.00,2019-03-22 05:39:15,
2019-03-22 01:44:14,58.7,51.2,30.04,WNW,295,3.0,12.0,76,0.00,,CLR,0.00,VWS V15.00,2019-03-22 05:44:14,
2019-03-22 01:49:15,58.8,51.6,30.04,WNW,296,0.0,12.0,77,0.00,,CLR,0.00,VWS V15.00,2019-03-22 05:49:15,
2019-03-22 01:54:20,58.8,51.6,30.04,West,278,0.0,12.0,77,0.00,,CLR,0.00,VWS V15.00,2019-03-22 05:54:20,
2019-03-22 01:59:20,58.7,51.5,30.04,NW,305,0.0,12.0,77,0.00,,CLR,0.00,VWS V15.00,2019-03-22 05:59:20,
2019-03-22 02:04:20,58.7,51.5,30.04,WNW,288,0.0,2.0,77,0.00,,CLR,0.00,VWS V15.00,2019-03-22 06:04:20,
2019-03-22 02:09:20,58.6,51.4,30.04,WNW,289,0.0,7.0,77,0.00,,CLR,0.00,VWS V15.00,2019-03-22 06:09:20,
2019-03-22 02:14:25,58.6,51.8,30.03,WNW,299,0.0,7.0,78,0.00,,CLR,0.00,VWS V15.00,2019-03-22 06:14:25,
2019-03-22 02:19:25,58.6,51.4,30.04,WNW,288,2.0,7.0,77,0.00,,CLR,0.00,VWS V15.00,2019-03-22 06:19:25,
2019-03-22 02:24:25,58.6,51.8,30.03,WNW,298,0.0,7.0,78,0.00,,CLR,0.00,VWS V15.00,2019-03-22 06:24:25,
2019-03-22 02:29:29,58.5,51.7,30.03,WNW,294,0.0,7.0,78,0.00,,CLR,0.00,VWS V15.00,2019-03-22 06:29:29,
2019-03-22 02:34:30,58.4,51.6,30.03,NW,318,0.0,7.0,78,0.00,,CLR,0.00,VWS V15.00,2019-03-22 06:34:30,
2019-03-22 02:39:30,58.3,51.5,30.03,WNW,302,0.0,7.0,78,0.00,,CLR,0.00,VWS V15.00,2019-03-22 06:39:30,
2019-03-22 02:44:35,58.3,51.8,30.03,NW,321,0.0,8.0,79,0.00,,CLR,0.00,VWS V15.00,2019-03-22 06:44:35,
2019-03-22 02:49:35,58.2,51.4,30.04,WNW,295,0.0,8.0,78,0.00,,CLR,0.00,VWS V15.00,2019-03-22 06:49:35,
2019-03-22 02:54:35,58.2,51.7,30.03,WNW,295,0.0,8.0,79,0.00,,CLR,0.00,VWS V15.00,2019-03-22 06:54:35,
2019-03-22 02:59:34,58.1,51.6,30.03,WNW,302,0.0,8.0,79,0.00,,CLR,0.00,VWS V15.00,2019-03-22 06:59:34,
2019-03-22 03:04:40,58.0,51.5,30.03,NW,321,0.0,0.0,79,0.00,,CLR,0.00,VWS V15.00,2019-03-22 07:04:40,
2019-03-22 03:09:40,57.9,51.4,30.04,NW,315,0.0,0.0,79,0.00,,CLR,0.00,VWS V15.00,2019-03-22 07:09:40,
2019-03-22 03:14:40,57.9,51.8,30.03,WNW,293,0.0,0.0,80,0.00,,CLR,0.00,VWS V15.00,2019-03-22 07:14:40,
2019-03-22 03:19:40,57.8,51.7,30.03,WNW,295,0.0,0.0,80,0.00,,CLR,0.00,VWS V15.00,2019-03-22 07:19:40,
2019-03-22 03:24:45,57.7,51.6,30.03,WNW,294,0.0,0.0,80,0.00,,CLR,0.00,VWS V15.00,2019-03-22 07:24:45,
2019-03-22 03:29:44,57.6,51.5,30.03,NW,308,0.0,0.0,80,0.00,,CLR,0.00,VWS V15.00,2019-03-22 07:29:44,
2019-03-22 03:34:45,57.5,51.7,30.03,NW,308,0.0,0.0,81,0.00,,CLR,0.00,VWS V15.00,2019-03-22 07:34:45,
2019-03-22 03:39:50,57.4,51.6,30.03,NW,308,0.0,0.0,81,0.00,,CLR,0.00,VWS V15.00,2019-03-22 07:39:50,
2019-03-22 03:44:50,57.2,51.4,30.03,NW,308,0.0,0.0,81,0.00,,CLR,0.00,VWS V15.00,2019-03-22 07:44:50,
2019-03-22 03:49:50,57.1,51.3,30.03,NW,308,0.0,0.0,81,0.00,,CLR,0.00,VWS V15.00,2019-03-22 07:49:50,
2019-03-22 03:54:55,57.0,51.2,30.02,NW,308,0.0,0.0,81,0.00,,CLR,0.00,VWS V15.00,2019-03-22 07:54:55,
2019-03-22 03:59:54,56.9,51.5,30.03,NW,308,0.0,0.0,82,0.00,,CLR,0.00,VWS V15.00,2019-03-22 07:59:54,
2019-03-22 04:04:55,56.8,51.0,30.03,NW,308,0.0,0.0,81,0.00,,CLR,0.00,VWS V15.00,2019-03-22 08:04:55,
2019-03-22 04:08:55,56.7,50.9,30.03,NW,308,0.0,0.0,81,0.00,,CLR,0.00,VWS V15.00,2019-03-22 08:08:55,
2019-03-22 04:13:59,56.7,51.3,30.03,NW,308,0.0,0.0,82,0.00,,CLR,0.00,VWS V15.00,2019-03-22 08:13:59,
2019-03-22 04:19:00,56.6,51.2,30.03,NW,308,0.0,0.0,82,0.00,,CLR,0.00,VWS V15.00,2019-03-22 08:19:00,
2019-03-22 04:24:00,56.6,51.2,30.03,NW,308,0.0,0.0,82,0.00,,CLR,0.00,VWS V15.00,2019-03-22 08:24:00,
2019-03-22 04:29:00,56.5,51.1,30.03,NW,308,0.0,0.0,82,0.00,,CLR,0.00,VWS V15.00,2019-03-22 08:29:00,
2019-03-22 04:34:00,56.5,51.1,30.03,NW,308,0.0,0.0,82,0.00,,CLR,0.00,VWS V15.00,2019-03-22 08:34:00,
2019-03-22 04:39:09,56.4,51.0,30.03,NW,308,0.0,0.0,82,0.00,,CLR,0.00,VWS V15.00,2019-03-22 08:39:09,
2019-03-22 04:44:05,56.3,51.2,30.03,NW,308,0.0,0.0,83,0.00,,CLR,0.00,VWS V15.00,2019-03-22 08:44:05,
2019-03-22 04:49:10,56.3,51.2,30.03,NW,308,0.0,0.0,83,0.00,,CLR,0.00,VWS V15.00,2019-03-22 08:49:10,
2019-03-22 04:54:10,56.2,50.8,30.03,NW,308,0.0,0.0,82,0.00,,CLR,0.00,VWS V15.00,2019-03-22 08:54:10,
2019-03-22 04:59:15,56.2,51.1,30.03,NW,308,0.0,0.0,83,0.00,,CLR,0.00,VWS V15.00,2019-03-22 08:59:15,
2019-03-22 05:04:15,56.1,50.7,30.03,NW,308,0.0,0.0,82,0.00,,CLR,0.00,VWS V15.00,2019-03-22 09:04:15,
2019-03-22 05:09:15,56.0,50.9,30.04,NW,308,0.0,0.0,83,0.00,,CLR,0.00,VWS V15.00,2019-03-22 09:09:15,
2019-03-22 05:14:15,55.9,50.8,30.04,NW,308,0.0,0.0,83,0.00,,CLR,0.00,VWS V15.00,2019-03-22 09:14:15,
2019-03-22 05:19:20,55.8,50.7,30.04,NW,308,0.0,0.0,83,0.00,,CLR,0.00,VWS V15.00,2019-03-22 09:19:20,
2019-03-22 05:24:20,55.7,50.6,30.04,NW,308,0.0,0.0,83,0.00,,CLR,0.00,VWS V15.00,2019-03-22 09:24:20,
2019-03-22 05:29:20,55.6,50.5,30.04,NW,309,0.0,0.0,83,0.00,,CLR,0.00,VWS V15.00,2019-03-22 09:29:20,
2019-03-22 05:34:24,55.5,50.4,30.04,NW,308,0.0,0.0,83,0.00,,CLR,0.00,VWS V15.00,2019-03-22 09:34:24,
2019-03-22 05:39:25,55.4,50.3,30.04,NW,308,0.0,0.0,83,0.00,,CLR,0.00,VWS V15.00,2019-03-22 09:39:25,
2019-03-22 05:44:25,55.3,50.2,30.04,NW,308,0.0,0.0,83,0.00,,CLR,0.00,VWS V15.00,2019-03-22 09:44:25,
2019-03-22 05:49:30,55.1,49.7,30.04,NW,308,0.0,0.0,82,0.00,,CLR,0.00,VWS V15.00,2019-03-22 09:49:30,
2019-03-22 05:54:30,55.0,49.9,30.04,NW,308,0.0,0.0,83,0.00,,CLR,0.00,VWS V15.00,2019-03-22 09:54:30,
2019-03-22 05:59:30,54.9,49.8,30.04,NW,308,0.0,0.0,83,0.00,,CLR,0.00,VWS V15.00,2019-03-22 09:59:30,
2019-03-22 06:04:30,54.7,49.6,30.05,NW,308,0.0,0.0,83,0.00,,CLR,0.00,VWS V15.00,2019-03-22 10:04:30,
2019-03-22 06:09:34,54.6,49.5,30.05,NW,308,0.0,0.0,83,0.00,,CLR,0.00,VWS V15.00,2019-03-22 10:09:34,
2019-03-22 06:14:35,54.5,49.5,30.05,NW,308,0.0,0.0,83,0.00,,CLR,0.00,VWS V15.00,2019-03-22 10:14:35,
2019-03-22 06:19:40,54.4,49.4,30.05,NW,308,0.0,0.0,83,0.00,,CLR,0.00,VWS V15.00,2019-03-22 10:19:40,
2019-03-22 06:24:40,54.3,49.3,30.05,NW,308,0.0,0.0,83,0.00,,CLR,0.00,VWS V15.00,2019-03-22 10:24:40,
2019-03-22 06:29:40,54.2,49.2,30.05,NW,308,0.0,0.0,83,0.00,,CLR,0.00,VWS V15.00,2019-03-22 10:29:40,
2019-03-22 06:34:39,54.1,49.1,30.05,NW,308,0.0,0.0,83,0.00,,CLR,0.00,VWS V15.00,2019-03-22 10:34:39,
2019-03-22 06:39:45,54.0,49.0,30.06,NW,309,0.0,0.0,83,0.00,,CLR,0.00,VWS V15.00,2019-03-22 10:39:45,
2019-03-22 06:44:44,53.9,48.9,30.05,NW,308,0.0,0.0,83,0.00,,CLR,0.00,VWS V15.00,2019-03-22 10:44:44,
2019-03-22 06:49:45,53.7,48.7,30.06,NW,308,0.0,0.0,83,0.00,,CLR,0.00,VWS V15.00,2019-03-22 10:49:45,
2019-03-22 06:54:45,53.6,48.6,30.06,NW,308,0.0,0.0,83,0.00,,CLR,0.00,VWS V15.00,2019-03-22 10:54:45,
2019-03-22 06:59:50,53.5,48.5,30.06,NW,308,0.0,0.0,83,0.00,,CLR,0.00,VWS V15.00,2019-03-22 10:59:50,
2019-03-22 07:04:50,53.4,48.7,30.06,NW,308,0.0,0.0,84,0.00,,CLR,0.00,VWS V15.00,2019-03-22 11:04:50,
2019-03-22 07:09:50,53.3,48.6,30.06,NW,309,0.0,0.0,84,0.00,,CLR,0.00,VWS V15.00,2019-03-22 11:09:50,
2019-03-22 07:14:55,53.2,48.5,30.06,NW,308,0.0,0.0,84,0.00,,CLR,0.00,VWS V15.00,2019-03-22 11:14:55,
2019-03-22 07:19:55,53.1,48.4,30.07,NW,308,0.0,0.0,84,0.00,,CLR,0.00,VWS V15.00,2019-03-22 11:19:55,
2019-03-22 07:24:55,53.0,48.3,30.06,NW,308,0.0,0.0,84,0.00,,CLR,0.00,VWS V15.00,2019-03-22 11:24:55,
2019-03-22 07:29:00,53.0,48.3,30.07,NW,309,0.0,0.0,84,0.00,,CLR,0.00,VWS V15.00,2019-03-22 11:29:00,
2019-03-22 07:34:00,52.9,48.2,30.07,NW,308,0.0,0.0,84,0.00,,CLR,0.00,VWS V15.00,2019-03-22 11:34:00,
2019-03-22 07:39:00,52.9,48.2,30.07,NW,308,0.0,0.0,84,0.00,,CLR,0.00,VWS V15.00,2019-03-22 11:39:00,
2019-03-22 07:43:58,52.8,48.4,30.07,NW,308,0.0,0.0,85,0.00,,CLR,0.00,VWS V15.00,2019-03-22 11:43:58,
2019-03-22 07:49:03,52.8,48.4,30.07,NW,308,0.0,0.0,85,0.00,,CLR,0.00,VWS V15.00,2019-03-22 11:49:03,
2019-03-22 07:54:03,52.7,48.3,30.07,NW,308,0.0,0.0,85,0.00,,CLR,0.00,VWS V15.00,2019-03-22 11:54:03,
2019-03-22 07:59:03,52.7,48.3,30.08,NW,308,0.0,0.0,85,0.00,,CLR,0.00,VWS V15.00,2019-03-22 11:59:03,
2019-03-22 08:04:04,52.8,48.7,30.08,NW,308,0.0,0.0,86,0.00,,CLR,0.00,VWS V15.00,2019-03-22 12:04:04,
2019-03-22 08:09:03,52.8,48.7,30.08,NW,308,0.0,0.0,86,0.00,,CLR,0.00,VWS V15.00,2019-03-22 12:09:03,
2019-03-22 08:14:12,52.9,48.8,30.08,NW,308,0.0,0.0,86,0.00,,CLR,0.00,VWS V15.00,2019-03-22 12:14:12,
2019-03-22 08:19:13,53.0,48.9,30.08,NW,308,0.0,0.0,86,0.00,,CLR,0.00,VWS V15.00,2019-03-22 12:19:13,
2019-03-22 08:24:13,53.2,49.1,30.08,NW,308,0.0,0.0,86,0.00,,CLR,0.00,VWS V15.00,2019-03-22 12:24:13,
2019-03-22 08:29:13,53.4,49.6,30.08,NW,308,0.0,0.0,87,0.00,,CLR,0.00,VWS V15.00,2019-03-22 12:29:13,
2019-03-22 08:34:18,53.7,49.9,30.08,NW,308,0.0,0.0,87,0.00,,CLR,0.00,VWS V15.00,2019-03-22 12:34:18,
2019-03-22 08:39:19,54.0,50.5,30.08,NW,308,0.0,0.0,88,0.00,,CLR,0.00,VWS V15.00,2019-03-22 12:39:19,
2019-03-22 08:44:18,54.2,50.7,30.08,NW,305,0.0,0.0,88,0.00,,CLR,0.00,VWS V15.00,2019-03-22 12:44:18,
2019-03-22 08:49:24,54.5,51.0,30.09,NW,305,0.0,0.0,88,0.00,,CLR,0.00,VWS V15.00,2019-03-22 12:49:24,
2019-03-22 08:54:24,54.8,51.3,30.09,NW,305,0.0,0.0,88,0.00,,CLR,0.00,VWS V15.00,2019-03-22 12:54:24,
2019-03-22 08:59:23,55.1,51.6,30.09,NW,310,0.0,0.0,88,0.00,,CLR,0.00,VWS V15.00,2019-03-22 12:59:23,
2019-03-22 09:04:28,55.4,51.6,30.09,NW,310,0.0,0.0,87,0.00,,CLR,0.00,VWS V15.00,2019-03-22 13:04:28,
2019-03-22 09:09:28,55.8,52.0,30.10,NW,319,0.0,0.0,87,0.00,,CLR,0.00,VWS V15.00,2019-03-22 13:09:28,
2019-03-22 09:14:28,56.2,52.4,30.09,NW,317,0.0,0.0,87,0.00,,CLR,0.00,VWS V15.00,2019-03-22 13:14:28,
2019-03-22 09:19:28,56.5,52.4,30.09,NW,317,0.0,0.0,86,0.00,,CLR,0.00,VWS V15.00,2019-03-22 13:19:28,
2019-03-22 09:24:33,56.7,51.9,30.09,NNW,331,0.0,0.0,84,0.00,,CLR,0.00,VWS V15.00,2019-03-22 13:24:33,
2019-03-22 09:29:33,57.1,51.7,30.09,NW,313,0.0,0.0,82,0.00,,CLR,0.00,VWS V15.00,2019-03-22 13:29:33,
2019-03-22 09:34:33,57.6,51.5,30.09,WNW,303,0.0,0.0,80,0.00,,CLR,0.00,VWS V15.00,2019-03-22 13:34:33,
2019-03-22 09:39:38,58.1,50.9,30.10,NW,307,0.0,0.0,77,0.00,,CLR,0.00,VWS V15.00,2019-03-22 13:39:38,
2019-03-22 09:44:39,58.8,50.9,30.09,WNW,303,5.0,8.0,75,0.00,,CLR,0.00,VWS V15.00,2019-03-22 13:44:39,
2019-03-22 09:49:38,59.3,51.0,30.11,NW,315,3.0,8.0,74,0.00,,CLR,0.00,VWS V15.00,2019-03-22 13:49:38,
2019-03-22 09:54:38,59.9,50.9,30.11,North,351,0.0,8.0,72,0.00,,CLR,0.00,VWS V15.00,2019-03-22 13:54:38,
2019-03-22 09:59:43,60.6,50.4,30.10,NW,315,0.0,8.0,69,0.00,,CLR,0.00,VWS V15.00,2019-03-22 13:59:43,
2019-03-22 10:04:43,61.3,49.9,30.11,NNW,329,1.0,7.0,66,0.00,,CLR,0.00,VWS V15.00,2019-03-22 14:04:43,
2019-03-22 10:09:43,62.2,49.9,30.10,NNW,341,0.0,7.0,64,0.00,,CLR,0.00,VWS V15.00,2019-03-22 14:09:43,
2019-03-22 10:14:48,63.0,50.2,30.11,NW,312,5.0,7.0,63,0.00,,CLR,0.00,VWS V15.00,2019-03-22 14:14:48,
2019-03-22 10:19:49,63.7,50.0,30.11,NW,318,0.0,7.0,61,0.00,,CLR,0.00,VWS V15.00,2019-03-22 14:19:49,
2019-03-22 10:24:48,64.4,48.9,30.11,NW,315,5.0,8.0,57,0.00,,CLR,0.00,VWS V15.00,2019-03-22 14:24:48,
2019-03-22 10:29:53,65.0,47.0,30.11,NW,317,0.0,8.0,52,0.00,,CLR,0.00,VWS V15.00,2019-03-22 14:29:53,
2019-03-22 10:34:53,65.6,46.5,30.11,NNE,14,4.0,8.0,50,0.00,,CLR,0.00,VWS V15.00,2019-03-22 14:34:53,
2019-03-22 10:39:53,66.0,45.8,30.11,North,358,5.0,8.0,48,0.00,,CLR,0.00,VWS V15.00,2019-03-22 14:39:53,
2019-03-22 10:44:58,66.2,47.0,30.11,NNW,334,0.0,8.0,50,0.00,,CLR,0.00,VWS V15.00,2019-03-22 14:44:58,
2019-03-22 10:49:58,66.7,47.0,30.11,North,0,0.0,9.0,49,0.00,,CLR,0.00,VWS V15.00,2019-03-22 14:49:58,
2019-03-22 10:53:58,67.0,47.2,30.11,NW,318,4.0,9.0,49,0.00,,CLR,0.00,VWS V15.00,2019-03-22 14:53:58,
2019-03-22 10:58:59,67.5,46.6,30.11,North,3,1.0,9.0,47,0.00,,CLR,0.00,VWS V15.00,2019-03-22 14:58:59,
2019-03-22 11:04:03,67.7,46.2,30.10,North,354,2.0,9.0,46,0.00,,CLR,0.00,VWS V15.00,2019-03-22 15:04:03,
2019-03-22 11:09:03,67.9,49.1,30.12,NW,318,5.0,9.0,51,0.00,,CLR,0.00,VWS V15.00,2019-03-22 15:09:03,
2019-03-22 11:14:03,68.1,47.7,30.12,WNW,302,4.0,12.0,48,0.00,,CLR,0.00,VWS V15.00,2019-03-22 15:14:03,
2019-03-22 11:19:03,68.5,48.6,30.11,NW,322,8.0,12.0,49,0.00,,CLR,0.00,VWS V15.00,2019-03-22 15:19:03,
2019-03-22 11:24:03,69.0,49.1,30.11,NW,320,1.0,12.0,49,0.00,,CLR,0.00,VWS V15.00,2019-03-22 15:24:03,
2019-03-22 11:29:03,69.3,48.8,30.12,NNW,330,0.0,12.0,48,0.00,,CLR,0.00,VWS V15.00,2019-03-22 15:29:03,
2019-03-22 11:34:13,69.2,45.8,30.11,North,349,3.0,12.0,43,0.00,,CLR,0.00,VWS V15.00,2019-03-22 15:34:13,
2019-03-22 11:39:13,69.1,46.9,30.12,North,3,4.0,12.0,45,0.00,,CLR,0.00,VWS V15.00,2019-03-22 15:39:13,
2019-03-22 11:44:14,69.1,48.0,30.11,NNW,342,0.0,12.0,47,0.00,,CLR,0.00,VWS V15.00,2019-03-22 15:44:14,
2019-03-22 11:49:18,69.4,48.9,30.11,WNW,282,1.0,12.0,48,0.00,,CLR,0.00,VWS V15.00,2019-03-22 15:49:18,
2019-03-22 11:54:18,69.7,46.2,30.11,NNE,13,0.0,12.0,43,0.00,,CLR,0.00,VWS V15.00,2019-03-22 15:54:18,
2019-03-22 11:59:18,69.8,48.1,30.11,NNW,339,3.0,12.0,46,0.00,,CLR,0.00,VWS V15.00,2019-03-22 15:59:18,
2019-03-22 12:04:23,69.9,46.4,30.11,NNW,333,1.0,6.0,43,0.00,,CLR,0.00,VWS V15.00,2019-03-22 16:04:23,
2019-03-22 12:09:23,70.1,48.4,30.12,NNW,334,0.0,9.0,46,0.00,,CLR,0.00,VWS V15.00,2019-03-22 16:09:23,
2019-03-22 12:14:23,70.1,47.2,30.12,NW,314,0.0,9.0,44,0.00,,CLR,0.00,VWS V15.00,2019-03-22 16:14:23,
2019-03-22 12:19:23,70.5,48.2,30.11,NW,310,3.0,11.0,45,0.00,,CLR,0.00,VWS V15.00,2019-03-22 16:19:23,
2019-03-22 12:24:28,70.9,47.9,30.12,NW,323,2.0,11.0,44,0.00,,CLR,0.00,VWS V15.00,2019-03-22 16:24:28,
2019-03-22 12:29:28,71.2,48.2,30.11,WNW,294,0.0,11.0,44,0.00,,CLR,0.00,VWS V15.00,2019-03-22 16:29:28,
2019-03-22 12:34:29,71.5,48.5,30.12,NW,322,0.0,11.0,44,0.00,,CLR,0.00,VWS V15.00,2019-03-22 16:34:29,
2019-03-22 12:39:33,71.8,48.7,30.11,WNW,298,3.0,11.0,44,0.00,,CLR,0.00,VWS V15.00,2019-03-22 16:39:33,
2019-03-22 12:44:33,72.2,50.3,30.11,NNW,334,2.0,11.0,46,0.00,,CLR,0.00,VWS V15.00,2019-03-22 16:44:33,
2019-03-22 12:49:33,72.3,49.2,30.10,NNW,331,2.0,11.0,44,0.00,,CLR,0.00,VWS V15.00,2019-03-22 16:49:33,
2019-03-22 12:54:34,72.2,51.4,30.11,West,269,8.0,11.0,48,0.00,,CLR,0.00,VWS V15.00,2019-03-22 16:54:34,
2019-03-22 12:59:38,72.5,50.6,30.10,WSW,256,3.0,11.0,46,0.00,,CLR,0.00,VWS V15.00,2019-03-22 16:59:38,
2019-03-22 13:04:39,72.7,50.2,30.10,NW,317,6.0,7.0,45,0.00,,CLR,0.00,VWS V15.00,2019-03-22 17:04:39,
2019-03-22 13:09:43,73.0,50.4,30.10,WNW,293,0.0,11.0,45,0.00,,CLR,0.00,VWS V15.00,2019-03-22 17:09:43,
2019-03-22 13:14:43,73.0,50.4,30.09,NNW,334,2.0,11.0,45,0.00,,CLR,0.00,VWS V15.00,2019-03-22 17:14:43,
2019-03-22 13:19:43,72.4,48.7,30.09,NW,320,0.0,11.0,43,0.00,,CLR,0.00,VWS V15.00,2019-03-22 17:19:43,
2019-03-22 13:24:43,72.5,51.7,30.09,WNW,284,2.0,11.0,48,0.00,,CLR,0.00,VWS V15.00,2019-03-22 17:24:43,
2019-03-22 13:29:48,73.1,51.7,30.09,NW,306,2.0,12.0,47,0.00,,CLR,0.00,VWS V15.00,2019-03-22 17:29:48,
2019-03-22 13:34:48,73.6,53.8,30.08,West,272,5.0,12.0,50,0.00,,CLR,0.00,VWS V15.00,2019-03-22 17:34:48,
2019-03-22 13:39:48,74.1,51.4,30.09,NNW,327,0.0,12.0,45,0.00,,CLR,0.00,VWS V15.00,2019-03-22 17:39:48,
2019-03-22 13:44:53,74.4,52.9,30.08,NW,317,0.0,12.0,47,0.00,,CLR,0.00,VWS V15.00,2019-03-22 17:44:53,
2019-03-22 13:49:53,74.6,52.5,30.08,NW,310,7.0,12.0,46,0.00,,CLR,0.00,VWS V15.00,2019-03-22 17:49:53,
2019-03-22 13:54:53,75.1,51.7,30.08,WNW,299,5.0,12.0,44,0.00,,CLR,0.00,VWS V15.00,2019-03-22 17:54:53,
2019-03-22 13:59:53,75.5,52.1,30.08,NW,307,0.0,12.0,44,0.00,,CLR,0.00,VWS V15.00,2019-03-22 17:59:53,
2019-03-22 14:04:58,75.8,51.7,30.08,NW,323,1.0,4.0,43,0.00,,CLR,0.00,VWS V15.00,2019-03-22 18:04:58,
2019-03-22 14:08:58,75.9,49.2,30.08,NNE,18,0.0,9.0,39,0.00,,CLR,0.00,VWS V15.00,2019-03-22 18:08:58,
2019-03-22 14:13:58,75.2,51.8,30.08,SW,230,10.0,10.0,44,0.00,,CLR,0.00,VWS V15.00,2019-03-22 18:13:58,
2019-03-22 14:18:58,75.3,51.9,30.07,WSW,256,0.0,10.0,44,0.00,,CLR,0.00,VWS V15.00,2019-03-22 18:18:58,
2019-03-22 14:24:03,74.8,52.7,30.07,NNW,328,4.0,10.0,46,0.00,,CLR,0.00,VWS V15.00,2019-03-22 18:24:03,
2019-03-22 14:29:03,74.4,49.2,30.08,NNE,19,0.0,10.0,41,0.00,,CLR,0.00,VWS V15.00,2019-03-22 18:29:03,
2019-03-22 14:34:03,74.2,52.7,30.08,NE,35,0.0,10.0,47,0.00,,CLR,0.00,VWS V15.00,2019-03-22 18:34:03,
2019-03-22 14:39:03,73.0,52.2,30.07,North,0,0.0,10.0,48,0.00,,CLR,0.00,VWS V15.00,2019-03-22 18:39:03,
2019-03-22 14:44:03,72.5,52.3,30.07,North,9,0.0,10.0,49,0.00,,CLR,0.00,VWS V15.00,2019-03-22 18:44:03,
2019-03-22 14:49:13,72.3,51.5,30.07,NW,324,0.0,10.0,48,0.00,,CLR,0.00,VWS V15.00,2019-03-22 18:49:13,
2019-03-22 14:54:13,72.3,52.1,30.07,ESE,110,0.0,10.0,49,0.00,,CLR,0.00,VWS V15.00,2019-03-22 18:54:13,
2019-03-22 14:59:13,71.7,52.6,30.06,ENE,63,0.0,10.0,51,0.00,,CLR,0.00,VWS V15.00,2019-03-22 18:59:13,
2019-03-22 15:04:13,71.5,52.4,30.06,ESE,112,0.0,0.0,51,0.00,,CLR,0.00,VWS V15.00,2019-03-22 19:04:13,
2019-03-22 15:09:18,71.3,52.3,30.07,NE,55,0.0,0.0,51,0.00,,CLR,0.00,VWS V15.00,2019-03-22 19:09:18,
2019-03-22 15:14:19,71.3,51.7,30.06,NE,49,0.0,0.0,50,0.00,,CLR,0.00,VWS V15.00,2019-03-22 19:14:19,
2019-03-22 15:19:18,71.2,51.6,30.06,NNW,346,0.0,0.0,50,0.00,,CLR,0.00,VWS V15.00,2019-03-22 19:19:18,
2019-03-22 15:24:23,71.1,52.6,30.06,WNW,285,0.0,0.0,52,0.00,,CLR,0.00,VWS V15.00,2019-03-22 19:24:23,
2019-03-22 15:29:23,71.5,52.4,30.06,NNE,27,2.0,2.0,51,0.00,,CLR,0.00,VWS V15.00,2019-03-22 19:29:23,
2019-03-22 15:34:23,71.7,52.6,30.06,NE,43,0.0,2.0,51,0.00,,CLR,0.00,VWS V15.00,2019-03-22 19:34:23,
2019-03-22 15:39:28,71.7,53.2,30.06,NE,41,0.0,2.0,52,0.00,,CLR,0.00,VWS V15.00,2019-03-22 19:39:28,
2019-03-22 15:44:28,71.4,52.9,30.05,NE,41,0.0,2.0,52,0.00,,CLR,0.00,VWS V15.00,2019-03-22 19:44:28,
2019-03-22 15:49:28,71.3,52.8,30.05,NE,52,0.0,2.0,52,0.00,,CLR,0.00,VWS V15.00,2019-03-22 19:49:28,
2019-03-22 15:54:28,71.3,52.3,30.05,NNE,16,0.0,2.0,51,0.00,,CLR,0.00,VWS V15.00,2019-03-22 19:54:28,
2019-03-22 15:59:33,71.5,53.5,30.04,NNE,19,0.0,2.0,53,0.00,,CLR,0.00,VWS V15.00,2019-03-22 19:59:33,
2019-03-22 16:04:34,72.2,52.5,30.04,West,276,0.0,0.0,50,0.00,,CLR,0.00,VWS V15.00,2019-03-22 20:04:34,
2019-03-22 16:09:33,73.1,51.7,30.05,NNW,346,2.0,5.0,47,0.00,,CLR,0.00,VWS V15.00,2019-03-22 20:09:33,
2019-03-22 16:14:38,73.1,53.9,30.04,NNE,20,1.0,5.0,51,0.00,,CLR,0.00,VWS V15.00,2019-03-22 20:14:38,
2019-03-22 16:19:38,73.0,54.4,30.04,NNE,30,0.0,5.0,52,0.00,,CLR,0.00,VWS V15.00,2019-03-22 20:19:38,
2019-03-22 16:24:39,72.9,51.5,30.04,WNW,294,1.0,7.0,47,0.00,,CLR,0.00,VWS V15.00,2019-03-22 20:24:39,
2019-03-22 16:29:43,73.3,50.7,30.04,West,260,0.0,8.0,45,0.00,,CLR,0.00,VWS V15.00,2019-03-22 20:29:43,
2019-03-22 16:34:43,73.9,51.2,30.04,West,264,0.0,9.0,45,0.00,,CLR,0.00,VWS V15.00,2019-03-22 20:34:43,
2019-03-22 16:39:43,74.5,51.2,30.03,SW,234,1.0,9.0,44,0.00,,CLR,0.00,VWS V15.00,2019-03-22 20:39:43,
2019-03-22 16:44:43,75.0,51.6,30.04,West,271,0.0,9.0,44,0.00,,CLR,0.00,VWS V15.00,2019-03-22 20:44:43,
2019-03-22 16:49:49,75.5,51.5,30.04,West,276,5.0,9.0,43,0.00,,CLR,0.00,VWS V15.00,2019-03-22 20:49:49,
2019-03-22 16:54:49,75.8,51.7,30.04,West,265,5.0,12.0,43,0.00,,CLR,0.00,VWS V15.00,2019-03-22 20:54:49,
2019-03-22 16:59:49,76.0,52.5,30.05,WNW,301,1.0,12.0,44,0.00,,CLR,0.00,VWS V15.00,2019-03-22 20:59:49,
2019-03-22 17:04:54,76.1,51.4,30.03,WNW,296,0.0,9.0,42,0.00,,CLR,0.00,VWS V15.00,2019-03-22 21:04:54,
2019-03-22 17:09:53,76.2,51.5,30.03,WNW,285,2.0,9.0,42,0.00,,CLR,0.00,VWS V15.00,2019-03-22 21:09:53,